createdAt,value
2022-11-21T00:02:06.206Z,-0.20
2022-11-21T00:07:08.033Z,-0.20
2022-11-21T00:12:09.803Z,-0.10
2022-11-21T00:17:11.635Z,-0.10
2022-11-21T00:22:13.352Z,-0.10
2022-11-21T00:27:15.121Z,-0.10
2022-11-21T00:32:16.882Z,0.00
2022-11-21T00:37:18.639Z,0.10
2022-11-21T00:42:20.349Z,0.10
2022-11-21T00:47:22.139Z,0.10
2022-11-21T00:52:23.884Z,0.10
2022-11-21T00:57:25.612Z,0.20
2022-11-21T01:02:27.337Z,0.20
2022-11-21T01:07:29.170Z,0.20
2022-11-21T01:12:31.498Z,0.20
2022-11-21T01:17:33.830Z,0.30
2022-11-21T01:22:35.990Z,0.30
2022-11-21T01:27:37.688Z,0.20
2022-11-21T01:32:39.388Z,0.30
2022-11-21T01:37:41.067Z,0.30
2022-11-21T01:43:02.768Z,0.10
2022-11-21T01:48:04.822Z,0.00
2022-11-21T01:53:06.776Z,0.00
2022-11-21T01:58:09.676Z,0.00
2022-11-21T02:03:15.713Z,0.10
2022-11-21T02:08:22.940Z,0.20
2022-11-21T02:13:25.206Z,0.30
2022-11-21T02:18:26.900Z,0.30
2022-11-21T02:23:44.981Z,0.20
2022-11-21T02:28:46.956Z,0.20
2022-11-21T02:33:48.688Z,0.20
2022-11-21T02:38:50.381Z,0.10
2022-11-21T02:44:24.505Z,0.30
2022-11-21T02:49:55.273Z,0.30
2022-11-21T02:54:56.952Z,0.20
2022-11-21T02:59:58.680Z,0.20
2022-11-21T03:05:00.974Z,0.10
2022-11-21T03:10:03.090Z,0.00
2022-11-21T03:15:07.025Z,0.00
2022-11-21T03:20:09.956Z,0.00
2022-11-21T03:25:11.638Z,0.00
2022-11-21T03:30:13.649Z,0.00
2022-11-21T03:35:15.778Z,0.00
2022-11-21T03:40:17.595Z,0.00
2022-11-21T03:45:19.377Z,0.00
2022-11-21T03:50:21.566Z,0.00
2022-11-21T03:55:23.369Z,-0.10
2022-11-21T04:00:25.107Z,-0.10
2022-11-21T04:05:26.834Z,0.00
2022-11-21T04:10:28.582Z,0.00
2022-11-21T04:15:30.339Z,0.00
2022-11-21T04:20:32.031Z,0.10
2022-11-21T04:25:34.236Z,0.20
2022-11-21T04:30:36.301Z,0.20
2022-11-21T04:35:38.004Z,0.20
2022-11-21T04:40:39.818Z,0.20
2022-11-21T04:45:41.671Z,0.30
2022-11-21T04:50:43.419Z,0.30
2022-11-21T04:55:45.080Z,0.30
2022-11-21T05:00:46.816Z,0.40
2022-11-21T05:05:48.859Z,0.30
2022-11-21T05:11:08.993Z,0.30
2022-11-21T05:16:10.714Z,0.40
2022-11-21T05:21:12.421Z,0.40
2022-11-21T05:26:14.185Z,0.30
2022-11-21T05:31:15.932Z,0.30
2022-11-21T05:36:17.718Z,0.20
2022-11-21T05:41:19.400Z,0.30
2022-11-21T05:46:23.723Z,0.30
2022-11-21T05:51:25.572Z,0.30
2022-11-21T05:56:27.430Z,0.30
2022-11-21T06:01:47.626Z,0.30
2022-11-21T06:06:49.341Z,0.30
2022-11-21T06:11:51.044Z,0.40
2022-11-21T06:16:52.759Z,0.30
2022-11-21T06:21:54.699Z,0.40
2022-11-21T06:26:57.405Z,0.40
2022-11-21T06:31:59.194Z,0.40
2022-11-21T06:37:01.127Z,0.40
2022-11-21T06:42:03.005Z,0.40
2022-11-21T06:47:04.832Z,0.50
2022-11-21T06:52:06.533Z,0.40
2022-11-21T06:57:08.367Z,0.60
2022-11-21T07:02:13.235Z,0.50
2022-11-21T07:07:14.935Z,0.50
2022-11-21T07:12:35.096Z,0.40
2022-11-21T07:17:36.792Z,0.30
2022-11-21T07:22:38.588Z,0.30
2022-11-21T07:27:40.350Z,0.20
2022-11-21T07:32:42.021Z,0.10
2022-11-21T07:37:43.720Z,0.00
2022-11-21T07:42:45.644Z,0.00
2022-11-21T07:47:47.396Z,-0.20
2022-11-21T07:52:49.149Z,-0.20
2022-11-21T07:58:05.192Z,-0.20
2022-11-21T08:03:07.340Z,-0.20
2022-11-21T08:08:10.781Z,-0.30
2022-11-21T08:13:13.167Z,-0.20
2022-11-21T08:18:19.183Z,-0.10
2022-11-21T08:23:20.953Z,-0.10
2022-11-21T08:28:22.774Z,0.10
2022-11-21T08:33:24.565Z,0.00
2022-11-21T08:38:26.486Z,0.00
2022-11-21T08:43:28.252Z,-0.10
2022-11-21T08:48:29.954Z,0.00
2022-11-21T08:53:31.629Z,0.10
2022-11-21T08:58:33.502Z,0.10
2022-11-21T09:03:35.316Z,0.10
2022-11-21T09:08:37.072Z,0.00
2022-11-21T09:13:38.809Z,0.10
2022-11-21T09:18:40.586Z,-0.10
2022-11-21T09:23:42.618Z,-0.10
2022-11-21T09:28:44.356Z,0.20
2022-11-21T09:33:48.655Z,0.10
2022-11-21T09:38:53.110Z,0.20
2022-11-21T09:44:38.984Z,0.20
2022-11-21T09:49:44.077Z,-0.10
2022-11-21T09:54:56.020Z,0.30
2022-11-21T10:00:01.445Z,0.30
2022-11-21T10:05:38.152Z,0.20
2022-11-21T10:10:54.916Z,0.20
2022-11-21T10:16:22.075Z,0.00
2022-11-21T10:21:57.189Z,-0.20
2022-11-21T10:27:31.288Z,-0.30
2022-11-21T10:32:43.730Z,-0.30
2022-11-21T10:37:47.913Z,-0.40
2022-11-21T10:43:33.717Z,-0.20
2022-11-21T10:48:35.642Z,-0.30
2022-11-21T10:53:56.246Z,-0.70
2022-11-21T10:58:59.343Z,-0.80
2022-11-21T11:09:34.456Z,-0.60
2022-11-21T11:14:36.137Z,-0.60
2022-11-21T11:19:40.261Z,-0.60
2022-11-21T11:24:56.195Z,-0.50
2022-11-21T11:30:07.300Z,-0.50
2022-11-21T11:35:17.775Z,-0.30
2022-11-21T11:40:19.565Z,-0.10
2022-11-21T11:46:10.257Z,0.10
2022-11-21T11:51:37.190Z,0.20
2022-11-21T11:56:39.614Z,0.20
2022-11-21T12:01:51.377Z,0.40
2022-11-21T12:12:36.312Z,0.50
2022-11-21T12:17:57.092Z,0.50
2022-11-21T12:22:58.977Z,0.40
2022-11-21T12:28:04.460Z,0.60
2022-11-21T12:33:13.846Z,0.60
2022-11-21T12:38:40.653Z,0.50
2022-11-21T12:43:57.467Z,0.40
2022-11-21T12:49:49.078Z,0.60
2022-11-21T12:55:06.988Z,0.70
2022-11-21T13:00:14.622Z,0.60
2022-11-21T13:05:26.698Z,0.70
2022-11-21T13:10:28.825Z,0.60
2022-11-21T13:15:56.325Z,0.70
2022-11-21T13:20:59.095Z,0.70
2022-11-21T13:26:01.020Z,0.60
2022-11-21T13:31:05.661Z,0.80
2022-11-21T13:36:11.958Z,0.90
2022-11-21T13:41:51.990Z,0.80
2022-11-21T13:47:04.915Z,0.90
2022-11-21T13:52:35.037Z,0.90
2022-11-21T13:58:03.794Z,0.80
2022-11-21T14:03:42.318Z,0.80
2022-11-21T14:08:46.197Z,0.70
2022-11-21T14:13:50.093Z,0.70
2022-11-21T14:18:53.845Z,0.60
2022-11-21T14:24:00.005Z,0.60
2022-11-21T14:29:26.710Z,0.60
2022-11-21T14:34:31.836Z,0.60
2022-11-21T14:39:43.612Z,0.60
2022-11-21T14:44:46.328Z,0.60
2022-11-21T14:49:53.359Z,0.60
2022-11-21T14:55:28.748Z,0.50
2022-11-21T15:00:57.542Z,0.50
2022-11-21T15:11:07.563Z,0.40
2022-11-21T15:16:09.364Z,0.40
2022-11-21T15:21:16.097Z,0.40
2022-11-21T15:26:31.170Z,0.30
2022-11-21T15:31:32.868Z,0.30
2022-11-21T15:36:54.931Z,0.20
2022-11-21T15:42:31.737Z,0.10
2022-11-21T15:47:33.443Z,0.10
2022-11-21T15:52:49.080Z,0.00
2022-11-21T15:57:50.895Z,0.10
2022-11-21T16:02:52.659Z,0.10
2022-11-21T16:07:54.432Z,0.20
2022-11-21T16:12:56.481Z,0.20
2022-11-21T16:17:58.257Z,0.20
2022-11-21T16:22:59.938Z,0.20
2022-11-21T16:28:06.818Z,0.20
2022-11-21T16:33:08.884Z,0.30
2022-11-21T16:38:11.187Z,0.30
2022-11-21T16:43:13.260Z,0.30
2022-11-21T16:48:15.273Z,0.20
2022-11-21T16:53:17.079Z,0.20
2022-11-21T16:58:18.960Z,0.20
2022-11-21T17:03:20.670Z,0.30
2022-11-21T17:08:22.368Z,0.20
2022-11-21T17:13:26.014Z,0.20
2022-11-21T17:18:27.924Z,0.20
2022-11-21T17:23:32.739Z,0.10
2022-11-21T17:28:35.631Z,0.00
2022-11-21T17:33:38.236Z,-0.10
2022-11-21T17:38:40.330Z,-0.10
2022-11-21T17:43:42.119Z,-0.20
2022-11-21T17:48:49.783Z,-0.30
2022-11-21T17:53:55.218Z,-0.40
2022-11-21T17:58:57.040Z,-0.40
2022-11-21T18:04:03.913Z,-0.50
2022-11-21T18:09:07.601Z,-0.60
2022-11-21T18:14:11.965Z,-0.70
2022-11-21T18:19:14.339Z,-0.70
2022-11-21T18:24:16.017Z,-0.80
2022-11-21T18:29:35.791Z,-0.90
2022-11-21T18:34:38.223Z,-0.80
2022-11-21T18:39:39.962Z,-0.80
2022-11-21T18:44:41.743Z,-0.90
2022-11-21T18:49:43.408Z,-0.90
2022-11-21T18:54:45.109Z,-0.90
2022-11-21T18:59:47.189Z,-0.80
2022-11-21T19:04:48.944Z,-0.80
2022-11-21T19:09:50.743Z,-0.90
2022-11-21T19:14:55.357Z,-0.80
2022-11-21T19:19:57.086Z,-0.80
2022-11-21T19:24:58.876Z,-0.80
2022-11-21T19:30:00.659Z,-0.60
2022-11-21T19:35:02.334Z,-0.60
2022-11-21T19:40:05.073Z,-0.50
2022-11-21T19:45:07.729Z,-0.50
2022-11-21T19:50:09.542Z,-0.40
2022-11-21T19:55:11.266Z,-0.40
2022-11-21T20:00:13.636Z,-0.40
2022-11-21T20:05:17.017Z,-0.40
2022-11-21T20:10:18.855Z,-0.60
2022-11-21T20:15:20.716Z,-0.70
2022-11-21T20:20:22.492Z,-0.70
2022-11-21T20:25:24.212Z,-0.70
2022-11-21T20:30:26.249Z,-0.70
2022-11-21T20:35:28.301Z,-0.80
2022-11-21T20:40:30.112Z,-0.80
2022-11-21T20:46:07.614Z,-0.80
2022-11-21T20:56:18.436Z,-0.80
2022-11-21T21:01:20.956Z,-0.80
2022-11-21T21:06:24.176Z,-0.90
2022-11-21T21:11:50.348Z,-0.90
2022-11-21T21:16:47.941Z,-0.90
2022-11-21T21:21:49.693Z,-0.90
2022-11-21T21:26:51.751Z,-0.90
2022-11-21T21:31:53.575Z,-0.80
2022-11-21T21:36:55.262Z,-0.70
2022-11-21T21:41:57.076Z,-0.60
2022-11-21T21:46:58.762Z,-0.40
2022-11-21T21:52:00.490Z,-0.30
2022-11-21T21:57:02.440Z,-0.30
2022-11-21T22:02:04.436Z,-0.30
2022-11-21T22:07:08.647Z,-0.20
2022-11-21T22:12:10.564Z,-0.20
2022-11-21T22:17:12.311Z,-0.30
2022-11-21T22:22:13.984Z,-0.50
2022-11-21T22:27:15.777Z,-0.60
2022-11-21T22:32:19.816Z,-0.60
2022-11-21T22:37:21.851Z,-0.70
2022-11-21T22:42:23.732Z,-0.80
2022-11-21T22:47:25.426Z,-0.90
2022-11-21T22:52:27.168Z,-1.00
2022-11-21T22:57:28.896Z,-1.10
2022-11-21T23:02:32.851Z,-1.20
2022-11-21T23:07:34.902Z,-1.20
2022-11-21T23:12:36.708Z,-1.20
2022-11-21T23:17:38.433Z,-1.20
2022-11-21T23:22:40.160Z,-1.20
2022-11-21T23:27:41.835Z,-1.20
2022-11-21T23:32:43.563Z,-1.30
2022-11-21T23:37:45.284Z,-1.30
2022-11-21T23:42:47.180Z,-1.20
2022-11-21T23:47:48.892Z,-1.30
2022-11-21T23:52:50.809Z,-1.30
2022-11-21T23:57:52.525Z,-1.40
